createdAt,value
2023-07-08T00:01:15.081Z,100852.56
2023-07-08T00:03:43.046Z,100858.81
2023-07-08T00:06:21.260Z,100862.44
2023-07-08T00:08:48.597Z,100837.37
2023-07-08T00:11:17.041Z,100865.25
2023-07-08T00:13:44.144Z,100869.56
2023-07-08T00:16:13.549Z,100864.37
2023-07-08T00:18:40.905Z,100869.88
2023-07-08T00:21:16.886Z,100864.72
2023-07-08T00:23:51.195Z,100867.84
2023-07-08T00:26:30.677Z,100872.62
2023-07-08T00:28:58.161Z,100856.34
2023-07-08T00:31:26.937Z,100864.72
2023-07-08T00:33:58.924Z,100861.28
2023-07-08T00:36:28.476Z,100864.22
2023-07-08T00:38:55.984Z,100866.09
2023-07-08T00:41:28.728Z,100845.28
2023-07-08T00:43:57.208Z,100862.31
2023-07-08T00:46:33.622Z,100853.66
2023-07-08T00:49:10.052Z,100873.34
2023-07-08T00:51:40.091Z,100873.28
2023-07-08T00:54:11.754Z,100857.59
2023-07-08T00:56:48.375Z,100865.53
2023-07-08T00:59:19.767Z,100859.94
2023-07-08T01:01:47.754Z,100861.75
2023-07-08T01:04:23.710Z,100840.47
2023-07-08T01:06:58.407Z,100839.66
2023-07-08T01:09:30.036Z,100858.38
2023-07-08T01:12:02.613Z,100855.69
2023-07-08T01:14:33.798Z,100855.88
2023-07-08T01:17:01.307Z,100855.06
2023-07-08T01:19:35.537Z,100839.19
2023-07-08T01:22:06.872Z,100851.97
2023-07-08T01:24:37.796Z,100841.78
2023-07-08T01:27:07.985Z,100853.56
2023-07-08T01:29:35.609Z,100856.12
2023-07-08T01:32:06.784Z,100831.66
2023-07-08T01:34:35.401Z,100863.09
2023-07-08T01:37:05.444Z,100866.38
2023-07-08T01:39:33.966Z,100866.53
2023-07-08T01:42:01.861Z,100860.37
2023-07-08T01:44:37.190Z,100865.41
2023-07-08T01:47:07.348Z,100864.47
2023-07-08T01:49:37.351Z,100851.31
2023-07-08T01:52:05.064Z,100867.09
2023-07-08T01:54:32.314Z,100860.00
2023-07-08T01:56:59.831Z,100853.81
2023-07-08T01:59:26.973Z,100849.91
2023-07-08T02:01:56.570Z,100842.88
2023-07-08T02:04:25.734Z,100819.91
2023-07-08T02:06:57.926Z,100858.78
2023-07-08T02:09:26.222Z,100858.84
2023-07-08T02:11:54.625Z,100866.47
2023-07-08T02:14:22.093Z,100846.25
2023-07-08T02:16:49.176Z,100871.88
2023-07-08T02:19:16.375Z,100857.00
2023-07-08T02:21:44.251Z,100849.34
2023-07-08T02:24:11.584Z,100864.37
2023-07-08T02:26:38.643Z,100850.25
2023-07-08T02:29:06.031Z,100862.81
2023-07-08T02:31:33.047Z,100859.97
2023-07-08T02:34:01.268Z,100864.28
2023-07-08T02:36:28.303Z,100854.09
2023-07-08T02:38:55.225Z,100858.75
2023-07-08T02:41:22.370Z,100844.75
2023-07-08T02:43:49.401Z,100873.25
2023-07-08T02:46:16.432Z,100867.13
2023-07-08T02:48:43.542Z,100861.22
2023-07-08T02:51:11.105Z,100869.19
2023-07-08T02:53:38.252Z,100879.72
2023-07-08T02:56:05.201Z,100866.09
2023-07-08T02:58:33.191Z,100885.28
2023-07-08T03:01:02.423Z,100868.63
2023-07-08T03:03:30.481Z,100881.97
2023-07-08T03:06:00.215Z,100889.19
2023-07-08T03:08:28.016Z,100871.81
2023-07-08T03:11:02.366Z,100885.50
2023-07-08T03:13:30.958Z,100890.06
2023-07-08T03:16:00.408Z,100887.66
2023-07-08T03:18:28.241Z,100885.81
2023-07-08T03:20:57.549Z,100886.53
2023-07-08T03:23:25.958Z,100891.53
2023-07-08T03:25:53.563Z,100875.69
2023-07-08T03:28:20.816Z,100887.72
2023-07-08T03:30:53.950Z,100871.06
2023-07-08T03:33:21.482Z,100886.00
2023-07-08T03:35:49.324Z,100890.16
2023-07-08T03:38:16.990Z,100878.59
2023-07-08T03:40:45.481Z,100879.56
2023-07-08T03:43:12.664Z,100904.00
2023-07-08T03:45:39.784Z,100897.87
2023-07-08T03:48:07.279Z,100885.50
2023-07-08T03:50:34.376Z,100891.41
2023-07-08T03:53:01.419Z,100893.72
2023-07-08T03:55:29.606Z,100896.91
2023-07-08T03:57:56.513Z,100906.06
2023-07-08T04:00:23.839Z,100906.56
2023-07-08T04:02:50.886Z,100909.13
2023-07-08T04:05:20.946Z,100886.97
2023-07-08T04:07:48.926Z,100907.94
2023-07-08T04:10:18.056Z,100914.13
2023-07-08T04:12:45.452Z,100904.91
2023-07-08T04:15:13.402Z,100898.47
2023-07-08T04:17:50.126Z,100902.63
2023-07-08T04:20:19.853Z,100901.37
2023-07-08T04:22:47.638Z,100888.66
2023-07-08T04:25:15.683Z,100896.25
2023-07-08T04:27:43.188Z,100860.34
2023-07-08T04:30:21.251Z,100893.16
2023-07-08T04:32:48.542Z,100891.06
2023-07-08T04:35:15.830Z,100899.94
2023-07-08T04:37:42.911Z,100897.25
2023-07-08T04:40:22.415Z,100903.16
2023-07-08T04:42:50.384Z,100910.53
2023-07-08T04:45:18.632Z,100907.25
2023-07-08T04:47:48.215Z,100911.47
2023-07-08T04:50:15.232Z,100894.87
2023-07-08T04:52:42.255Z,100890.97
2023-07-08T04:55:10.749Z,100911.84
2023-07-08T04:57:37.757Z,100917.06
2023-07-08T05:00:09.499Z,100898.66
2023-07-08T05:02:36.546Z,100911.37
2023-07-08T05:05:04.541Z,100916.47
2023-07-08T05:07:31.546Z,100901.72
2023-07-08T05:09:59.269Z,100897.63
2023-07-08T05:12:27.800Z,100903.84
2023-07-08T05:14:54.887Z,100918.59
2023-07-08T05:17:21.844Z,100905.22
2023-07-08T05:19:52.186Z,100916.94
2023-07-08T05:22:20.176Z,100928.47
2023-07-08T05:24:48.230Z,100908.97
2023-07-08T05:27:16.290Z,100937.66
2023-07-08T05:29:44.378Z,100932.84
2023-07-08T05:32:11.504Z,100923.75
2023-07-08T05:34:38.514Z,100948.06
2023-07-08T05:37:06.012Z,100943.66
2023-07-08T05:39:32.982Z,100920.88
2023-07-08T05:42:00.142Z,100926.72
2023-07-08T05:44:27.200Z,100942.31
2023-07-08T05:46:54.206Z,100949.06
2023-07-08T05:49:21.512Z,100943.31
2023-07-08T05:51:48.713Z,100930.50
2023-07-08T05:54:16.042Z,100944.66
2023-07-08T05:56:42.965Z,100957.31
2023-07-08T05:59:09.926Z,100948.81
2023-07-08T06:01:36.997Z,100953.28
2023-07-08T06:04:04.077Z,100959.47
2023-07-08T06:06:31.476Z,100944.56
2023-07-08T06:08:58.600Z,100965.50
2023-07-08T06:11:25.579Z,100968.16
2023-07-08T06:13:52.699Z,100949.94
2023-07-08T06:16:31.299Z,100959.84
2023-07-08T06:19:06.898Z,100943.41
2023-07-08T06:21:34.160Z,100950.91
2023-07-08T06:24:01.359Z,100941.03
2023-07-08T06:26:28.471Z,100949.06
2023-07-08T06:28:55.580Z,100944.38
2023-07-08T06:31:22.572Z,100960.16
2023-07-08T06:33:49.538Z,100961.59
2023-07-08T06:36:16.549Z,100961.75
2023-07-08T06:38:43.762Z,100933.47
2023-07-08T06:41:10.620Z,100950.38
2023-07-08T06:43:37.793Z,100945.25
2023-07-08T06:46:04.832Z,100937.16
2023-07-08T06:48:32.503Z,100956.41
2023-07-08T06:51:00.301Z,100935.78
2023-07-08T06:53:27.417Z,100941.63
2023-07-08T06:55:54.443Z,100951.91
2023-07-08T06:58:21.602Z,100944.97
2023-07-08T07:00:48.520Z,100955.56
2023-07-08T07:03:15.545Z,100959.47
2023-07-08T07:05:44.100Z,100954.41
2023-07-08T07:08:11.130Z,100937.03
2023-07-08T07:10:38.785Z,100953.56
2023-07-08T07:13:05.695Z,100938.25
2023-07-08T07:15:33.582Z,100943.91
2023-07-08T07:18:00.962Z,100945.69
2023-07-08T07:20:28.242Z,100928.91
2023-07-08T07:22:55.296Z,100932.28
2023-07-08T07:25:22.641Z,100942.94
2023-07-08T07:27:49.653Z,100940.94
2023-07-08T07:30:16.767Z,100934.03
2023-07-08T07:32:44.293Z,100935.88
2023-07-08T07:35:16.340Z,100929.13
2023-07-08T07:37:44.173Z,100940.66
2023-07-08T07:40:13.993Z,100936.56
2023-07-08T07:42:42.233Z,100935.59
2023-07-08T07:45:10.127Z,100947.38
2023-07-08T07:47:37.667Z,100938.75
2023-07-08T07:50:06.638Z,100938.22
2023-07-08T07:52:33.977Z,100937.47
2023-07-08T07:55:01.023Z,100942.44
2023-07-08T07:57:27.955Z,100908.34
2023-07-08T07:59:54.913Z,100927.28
2023-07-08T08:02:21.962Z,100942.88
2023-07-08T08:04:48.924Z,100924.78
2023-07-08T08:07:15.916Z,100935.56
2023-07-08T08:09:42.970Z,100927.75
2023-07-08T08:12:12.251Z,100915.28
2023-07-08T08:14:40.388Z,100929.81
2023-07-08T08:17:07.821Z,100922.38
2023-07-08T08:19:34.919Z,100925.91
2023-07-08T08:22:02.076Z,100915.31
2023-07-08T08:24:28.933Z,100913.47
2023-07-08T08:26:56.186Z,100921.25
2023-07-08T08:29:23.252Z,100921.66
2023-07-08T08:31:51.819Z,100906.53
2023-07-08T08:34:19.096Z,100905.03
2023-07-08T08:36:46.080Z,100916.56
2023-07-08T08:39:13.334Z,100914.66
2023-07-08T08:41:44.046Z,100907.19
2023-07-08T08:44:18.317Z,100910.88
2023-07-08T08:47:10.738Z,100914.84
2023-07-08T08:49:47.902Z,100915.19
2023-07-08T08:52:15.989Z,100906.56
2023-07-08T08:54:44.799Z,100909.47
2023-07-08T08:57:20.930Z,100905.78
2023-07-08T08:59:55.235Z,100909.78
2023-07-08T09:02:41.074Z,100921.25
2023-07-08T09:05:12.904Z,100905.31
2023-07-08T09:08:01.690Z,100911.00
2023-07-08T09:10:43.702Z,100906.38
2023-07-08T09:13:20.742Z,100901.47
2023-07-08T09:15:49.573Z,100896.44
2023-07-08T09:18:26.686Z,100875.16
2023-07-08T09:20:56.907Z,100903.66
2023-07-08T09:23:31.060Z,100906.22
2023-07-08T09:26:04.084Z,100897.56
2023-07-08T09:28:43.006Z,100869.97
2023-07-08T09:31:38.157Z,100897.44
2023-07-08T09:34:21.595Z,100884.78
2023-07-08T09:36:50.411Z,100897.87
2023-07-08T09:39:19.565Z,100889.13
2023-07-08T09:41:48.621Z,100897.50
2023-07-08T09:44:30.178Z,100902.47
2023-07-08T09:46:59.754Z,100896.34
2023-07-08T09:49:36.276Z,100868.75
2023-07-08T09:52:05.626Z,100897.38
2023-07-08T09:54:33.945Z,100871.56
2023-07-08T09:57:12.967Z,100887.19
2023-07-08T09:59:48.252Z,100886.00
2023-07-08T10:02:27.040Z,100882.69
2023-07-08T10:04:56.632Z,100891.53
2023-07-08T10:07:24.432Z,100882.25
2023-07-08T10:09:55.667Z,100886.72
2023-07-08T10:12:24.932Z,100884.03
2023-07-08T10:14:57.590Z,100882.28
2023-07-08T10:17:24.641Z,100875.72
2023-07-08T10:19:51.633Z,100873.97
2023-07-08T10:22:36.089Z,100868.84
2023-07-08T10:25:32.258Z,100860.59
2023-07-08T10:28:19.189Z,100838.88
2023-07-08T10:31:04.246Z,100869.94
2023-07-08T10:33:57.282Z,100854.03
2023-07-08T10:36:54.516Z,100862.44
2023-07-08T10:39:30.385Z,100873.75
2023-07-08T10:42:20.151Z,100841.13
2023-07-08T10:45:10.920Z,100854.78
2023-07-08T10:47:58.926Z,100850.91
2023-07-08T10:50:52.337Z,100844.81
2023-07-08T10:53:51.949Z,100850.22
2023-07-08T10:56:45.343Z,100839.50
2023-07-08T10:59:33.480Z,100830.94
2023-07-08T11:02:52.860Z,100841.13
2023-07-08T11:05:42.576Z,100840.47
2023-07-08T11:08:27.397Z,100837.03
2023-07-08T11:11:15.288Z,100833.87
2023-07-08T11:13:54.705Z,100824.59
2023-07-08T11:16:33.947Z,100830.69
2023-07-08T11:19:11.750Z,100821.41
2023-07-08T11:21:52.183Z,100825.25
2023-07-08T11:24:36.560Z,100829.72
2023-07-08T11:27:28.917Z,100799.31
2023-07-08T11:30:00.156Z,100816.78
2023-07-08T11:32:31.073Z,100817.75
2023-07-08T11:35:00.728Z,100804.47
2023-07-08T11:37:29.345Z,100814.47
2023-07-08T11:40:10.246Z,100813.59
2023-07-08T11:42:58.766Z,100809.81
2023-07-08T11:45:34.426Z,100799.84
2023-07-08T11:48:39.303Z,100799.44
2023-07-08T11:51:06.954Z,100806.81
2023-07-08T11:53:47.361Z,100791.28
2023-07-08T11:56:16.863Z,100795.47
2023-07-08T11:59:10.666Z,100799.19
2023-07-08T12:01:48.156Z,100788.34
2023-07-08T12:04:24.346Z,100777.06
2023-07-08T12:07:16.528Z,100769.53
2023-07-08T12:09:58.622Z,100773.44
2023-07-08T12:12:30.770Z,100773.78
2023-07-08T12:15:16.376Z,100771.50
2023-07-08T12:17:43.552Z,100767.62
2023-07-08T12:20:28.576Z,100771.03
2023-07-08T12:22:55.632Z,100763.31
2023-07-08T12:25:25.838Z,100768.50
2023-07-08T12:27:52.920Z,100746.16
2023-07-08T12:30:20.047Z,100763.19
2023-07-08T12:32:47.692Z,100754.06
2023-07-08T12:35:20.469Z,100755.91
2023-07-08T12:37:47.539Z,100764.50
2023-07-08T12:40:15.190Z,100750.72
2023-07-08T12:42:42.069Z,100756.25
2023-07-08T12:45:17.185Z,100761.72
2023-07-08T12:47:45.415Z,100744.25
2023-07-08T12:50:13.561Z,100753.00
2023-07-08T12:52:41.938Z,100739.25
2023-07-08T12:55:11.710Z,100750.50
2023-07-08T12:57:42.536Z,100745.53
2023-07-08T13:00:28.672Z,100758.91
2023-07-08T13:03:15.070Z,100748.00
2023-07-08T13:05:43.360Z,100750.81
2023-07-08T13:08:19.801Z,100748.47
2023-07-08T13:10:47.957Z,100738.91
2023-07-08T13:13:50.197Z,100739.66
2023-07-08T13:16:17.864Z,100740.22
2023-07-08T13:18:45.156Z,100736.34
2023-07-08T13:21:15.376Z,100730.78
2023-07-08T13:23:43.840Z,100732.94
2023-07-08T13:26:16.827Z,100731.16
2023-07-08T13:28:46.451Z,100739.94
2023-07-08T13:31:25.416Z,100733.53
2023-07-08T13:33:55.065Z,100722.88
2023-07-08T13:36:37.734Z,100729.69
2023-07-08T13:39:09.566Z,100724.50
2023-07-08T13:41:37.638Z,100724.50
2023-07-08T13:44:09.722Z,100728.72
2023-07-08T13:46:59.009Z,100725.94
2023-07-08T13:49:41.056Z,100701.56
2023-07-08T13:52:13.917Z,100726.91
2023-07-08T13:54:51.453Z,100726.91
2023-07-08T13:57:20.914Z,100725.91
2023-07-08T13:59:47.921Z,100732.06
2023-07-08T14:02:19.136Z,100726.09
2023-07-08T14:04:46.659Z,100714.94
2023-07-08T14:07:18.425Z,100720.72
2023-07-08T14:09:45.720Z,100706.34
2023-07-08T14:12:13.305Z,100715.19
2023-07-08T14:14:43.014Z,100711.56
2023-07-08T14:17:13.347Z,100716.03
2023-07-08T14:19:40.401Z,100712.16
2023-07-08T14:22:31.009Z,100696.22
2023-07-08T14:25:05.741Z,100717.97
2023-07-08T14:27:32.747Z,100710.31
2023-07-08T14:29:59.637Z,100711.72
2023-07-08T14:32:31.578Z,100706.88
2023-07-08T14:35:16.483Z,100712.50
2023-07-08T14:37:43.927Z,100716.72
2023-07-08T14:40:47.092Z,100721.34
2023-07-08T14:43:19.126Z,100708.22
2023-07-08T14:45:54.055Z,100707.78
2023-07-08T14:48:21.350Z,100696.22
2023-07-08T14:50:48.944Z,100683.69
2023-07-08T14:53:17.476Z,100708.13
2023-07-08T14:55:47.318Z,100702.53
2023-07-08T14:58:19.176Z,100706.81
2023-07-08T15:00:46.158Z,100698.47
2023-07-08T15:03:13.101Z,100697.63
2023-07-08T15:05:40.269Z,100694.53
2023-07-08T15:08:07.468Z,100682.88
2023-07-08T15:10:36.007Z,100687.63
2023-07-08T15:13:04.482Z,100675.72
2023-07-08T15:15:40.845Z,100693.56
2023-07-08T15:18:14.106Z,100683.09
2023-07-08T15:20:42.281Z,100680.34
2023-07-08T15:23:11.136Z,100682.38
2023-07-08T15:25:39.127Z,100670.53
2023-07-08T15:28:06.536Z,100678.19
2023-07-08T15:30:33.564Z,100658.09
2023-07-08T15:33:00.628Z,100669.50
2023-07-08T15:35:35.002Z,100672.31
2023-07-08T15:38:05.257Z,100661.81
2023-07-08T15:40:36.071Z,100669.94
2023-07-08T15:43:04.574Z,100642.50
2023-07-08T15:45:38.566Z,100653.25
2023-07-08T15:48:06.355Z,100648.91
2023-07-08T15:50:33.410Z,100634.63
2023-07-08T15:53:00.739Z,100637.91
2023-07-08T15:55:34.914Z,100622.09
2023-07-08T15:58:05.950Z,100632.91
2023-07-08T16:00:37.131Z,100636.34
2023-07-08T16:03:25.920Z,100637.63
2023-07-08T16:05:54.313Z,100640.06
2023-07-08T16:08:23.321Z,100614.97
2023-07-08T16:10:56.193Z,100632.41
2023-07-08T16:13:27.504Z,100635.31
2023-07-08T16:15:55.490Z,100632.44
2023-07-08T16:18:23.538Z,100637.78
2023-07-08T16:20:50.839Z,100626.50
2023-07-08T16:23:18.232Z,100636.72
2023-07-08T16:25:49.333Z,100643.09
2023-07-08T16:28:41.950Z,100626.34
2023-07-08T16:31:23.582Z,100629.91
2023-07-08T16:33:50.779Z,100619.28
2023-07-08T16:36:21.108Z,100624.81
2023-07-08T16:38:49.138Z,100626.16
2023-07-08T16:41:18.293Z,100627.16
2023-07-08T16:43:45.307Z,100634.69
2023-07-08T16:46:15.051Z,100626.84
2023-07-08T16:48:44.374Z,100630.41
2023-07-08T16:51:23.513Z,100622.19
2023-07-08T16:53:50.605Z,100622.91
2023-07-08T16:56:22.216Z,100624.28
2023-07-08T16:58:49.189Z,100626.47
2023-07-08T17:01:21.578Z,100617.63
2023-07-08T17:03:51.104Z,100613.53
2023-07-08T17:06:18.201Z,100619.41
2023-07-08T17:08:45.698Z,100611.69
2023-07-08T17:11:18.031Z,100619.63
2023-07-08T17:13:46.090Z,100608.28
2023-07-08T17:16:17.800Z,100613.06
2023-07-08T17:18:47.117Z,100617.28
2023-07-08T17:21:15.763Z,100612.94
2023-07-08T17:23:43.519Z,100601.19
2023-07-08T17:26:10.473Z,100600.31
2023-07-08T17:28:37.367Z,100595.31
2023-07-08T17:31:05.926Z,100595.06
2023-07-08T17:33:33.319Z,100605.28
2023-07-08T17:36:01.159Z,100618.78
2023-07-08T17:38:40.403Z,100620.22
2023-07-08T17:41:11.590Z,100623.97
2023-07-08T17:43:40.411Z,100623.66
2023-07-08T17:46:12.842Z,100598.00
2023-07-08T17:48:40.730Z,100611.50
2023-07-08T17:51:09.648Z,100608.47
2023-07-08T17:53:36.649Z,100594.78
2023-07-08T17:56:04.133Z,100611.03
2023-07-08T17:58:34.847Z,100610.72
2023-07-08T18:01:01.835Z,100606.50
2023-07-08T18:03:28.869Z,100614.88
2023-07-08T18:05:56.071Z,100621.16
2023-07-08T18:08:23.232Z,100593.97
2023-07-08T18:10:50.244Z,100615.03
2023-07-08T18:13:23.616Z,100599.25
2023-07-08T18:15:50.640Z,100601.44
2023-07-08T18:18:17.734Z,100611.16
2023-07-08T18:20:51.518Z,100616.91
2023-07-08T18:23:21.712Z,100625.12
2023-07-08T18:25:49.174Z,100625.09
2023-07-08T18:28:16.772Z,100622.53
2023-07-08T18:30:45.004Z,100634.44
2023-07-08T18:33:17.633Z,100626.06
2023-07-08T18:35:47.002Z,100625.22
2023-07-08T18:38:14.505Z,100631.62
2023-07-08T18:40:43.730Z,100634.25
2023-07-08T18:43:21.483Z,100622.09
2023-07-08T18:45:49.665Z,100636.81
2023-07-08T18:48:18.893Z,100637.03
2023-07-08T18:50:53.349Z,100630.72
2023-07-08T18:53:21.064Z,100634.66
2023-07-08T18:55:48.918Z,100634.75
2023-07-08T18:58:20.230Z,100623.84
2023-07-08T19:00:48.664Z,100627.84
2023-07-08T19:03:29.547Z,100643.63
2023-07-08T19:05:56.988Z,100649.69
2023-07-08T19:08:24.233Z,100657.47
2023-07-08T19:10:56.567Z,100653.59
2023-07-08T19:13:27.445Z,100659.34
2023-07-08T19:15:55.649Z,100656.88
2023-07-08T19:18:23.289Z,100650.09
2023-07-08T19:20:52.106Z,100646.66
2023-07-08T19:23:22.828Z,100669.62
2023-07-08T19:25:49.938Z,100678.97
2023-07-08T19:28:17.155Z,100676.22
2023-07-08T19:30:51.460Z,100682.41
2023-07-08T19:33:19.144Z,100679.38
2023-07-08T19:35:47.682Z,100671.72
2023-07-08T19:38:16.603Z,100683.34
2023-07-08T19:40:51.555Z,100681.50
2023-07-08T19:43:22.763Z,100696.09
2023-07-08T19:45:49.858Z,100691.13
2023-07-08T19:48:17.229Z,100690.75
2023-07-08T19:50:44.267Z,100690.28
2023-07-08T19:53:12.674Z,100681.25
2023-07-08T19:55:41.104Z,100683.53
2023-07-08T19:58:14.218Z,100693.19
2023-07-08T20:00:52.545Z,100686.66
2023-07-08T20:03:19.606Z,100690.12
2023-07-08T20:05:46.689Z,100663.38
2023-07-08T20:08:23.104Z,100686.16
2023-07-08T20:10:55.133Z,100701.22
2023-07-08T20:13:28.129Z,100696.12
2023-07-08T20:15:55.164Z,100696.59
2023-07-08T20:18:29.191Z,100677.31
2023-07-08T20:21:00.244Z,100686.34
2023-07-08T20:23:28.854Z,100694.87
2023-07-08T20:25:56.909Z,100695.22
2023-07-08T20:31:01.579Z,100695.91
2023-07-08T20:33:28.688Z,100685.81
2023-07-08T20:35:55.994Z,100710.81
2023-07-08T20:38:22.996Z,100705.72
2023-07-08T20:40:49.918Z,100697.31
2023-07-08T20:43:20.443Z,100703.66
2023-07-08T20:45:49.489Z,100710.88
2023-07-08T20:48:23.709Z,100715.63
2023-07-08T20:50:51.703Z,100716.59
2023-07-08T20:53:19.819Z,100691.06
2023-07-08T20:55:48.164Z,100721.47
2023-07-08T20:58:20.900Z,100726.13
2023-07-08T21:00:48.798Z,100695.31
2023-07-08T21:03:20.327Z,100723.94
2023-07-08T21:05:50.787Z,100728.16
2023-07-08T21:08:17.795Z,100727.19
2023-07-08T21:10:45.010Z,100721.41
2023-07-08T21:13:11.939Z,100727.69
2023-07-08T21:15:39.361Z,100706.81
2023-07-08T21:18:14.556Z,100693.66
2023-07-08T21:20:41.903Z,100730.38
2023-07-08T21:23:14.585Z,100729.06
2023-07-08T21:25:42.082Z,100717.12
2023-07-08T21:28:21.224Z,100702.06
2023-07-08T21:30:48.177Z,100724.34
2023-07-08T21:33:15.182Z,100716.03
2023-07-08T21:35:42.747Z,100726.50
2023-07-08T21:38:13.086Z,100722.75
2023-07-08T21:40:51.561Z,100730.69
2023-07-08T21:43:20.947Z,100722.31
2023-07-08T21:45:48.080Z,100733.09
2023-07-08T21:48:16.906Z,100717.19
2023-07-08T21:51:02.883Z,100728.37
2023-07-08T21:53:36.683Z,100720.91
2023-07-08T21:56:05.072Z,100741.44
2023-07-08T21:58:32.418Z,100720.12
2023-07-08T22:00:59.816Z,100741.28
2023-07-08T22:03:28.739Z,100733.66
2023-07-08T22:05:57.022Z,100731.53
2023-07-08T22:08:26.300Z,100734.38
2023-07-08T22:11:00.281Z,100732.00
2023-07-08T22:13:30.509Z,100741.47
2023-07-08T22:16:04.083Z,100739.06
2023-07-08T22:18:31.412Z,100733.66
2023-07-08T22:21:01.924Z,100738.59
2023-07-08T22:23:30.871Z,100728.41
2023-07-08T22:25:58.841Z,100741.44
2023-07-08T22:28:27.067Z,100731.03
2023-07-08T22:30:54.155Z,100728.63
2023-07-08T22:33:24.816Z,100728.72
2023-07-08T22:35:53.491Z,100740.41
2023-07-08T22:38:20.648Z,100718.91
2023-07-08T22:40:49.218Z,100737.31
2023-07-08T22:43:30.520Z,100742.25
2023-07-08T22:45:58.216Z,100752.00
2023-07-08T22:48:26.722Z,100746.03
2023-07-08T22:51:05.496Z,100733.78
2023-07-08T22:53:35.509Z,100741.03
2023-07-08T22:56:03.264Z,100745.22
2023-07-08T22:58:33.449Z,100745.37
2023-07-08T23:01:01.475Z,100747.34
2023-07-08T23:03:28.599Z,100748.22
2023-07-08T23:05:59.361Z,100749.16
2023-07-08T23:08:32.716Z,100753.72
2023-07-08T23:11:00.703Z,100748.25
2023-07-08T23:13:40.454Z,100752.78
2023-07-08T23:16:16.653Z,100755.69
2023-07-08T23:18:47.384Z,100754.12
2023-07-08T23:21:17.085Z,100755.69
2023-07-08T23:23:44.410Z,100753.06
2023-07-08T23:26:22.373Z,100757.12
2023-07-08T23:28:53.100Z,100761.63
2023-07-08T23:31:20.311Z,100752.84
2023-07-08T23:33:47.925Z,100753.78
2023-07-08T23:36:34.949Z,100749.72
2023-07-08T23:39:04.870Z,100726.62
2023-07-08T23:41:33.347Z,100755.16
2023-07-08T23:44:00.556Z,100761.06
2023-07-08T23:46:31.074Z,100743.28
2023-07-08T23:48:59.613Z,100748.31
2023-07-08T23:51:27.355Z,100765.16
2023-07-08T23:53:54.446Z,100762.34
2023-07-08T23:56:33.001Z,100743.53
2023-07-08T23:59:02.440Z,100739.91
